Time,TemperatureF,DewpointF,PressureIn,WindDirection,WindDirectionDegrees,WindSpeedMPH,WindSpeedGustMPH,Humidity,HourlyPrecipIn,Conditions,Clouds,dailyrainin,SolarRadiationWatts/m^2,SoftwareType,DateUTC
2013-08-18 00:21:00,54.0,32.0,-100.00,ENE,70,6.0,7.0,43,0.00,,,0.00,0.000000,,2013-08-18 06:21:00,
2013-08-18 00:32:00,54.0,32.0,-100.00,ENE,70,6.0,7.0,43,0.00,,,0.00,0.000000,,2013-08-18 06:32:00,
2013-08-18 00:42:00,54.0,32.0,-100.00,ENE,70,6.0,7.0,43,0.00,,,0.00,0.000000,,2013-08-18 06:42:00,
2013-08-18 00:52:00,54.0,32.0,-100.00,ENE,70,6.0,7.0,43,0.00,,,0.00,0.000000,,2013-08-18 06:52:00,
2013-08-18 01:22:00,54.0,31.0,-100.00,East,84,5.0,8.0,41,0.00,,,0.00,0.000000,,2013-08-18 07:22:00,
2013-08-18 01:32:00,54.0,31.0,-100.00,East,84,5.0,8.0,41,0.00,,,0.00,0.000000,,2013-08-18 07:32:00,
2013-08-18 01:42:00,54.0,31.0,-100.00,East,84,5.0,8.0,41,0.00,,,0.00,0.000000,,2013-08-18 07:42:00,
2013-08-18 01:52:00,54.0,31.0,-100.00,East,84,5.0,8.0,41,0.00,,,0.00,0.000000,,2013-08-18 07:52:00,
2013-08-18 02:21:00,52.0,31.0,-100.00,East,95,5.0,7.0,45,0.00,,,0.00,0.000000,,2013-08-18 08:21:00,
2013-08-18 02:32:00,52.0,31.0,-100.00,East,95,5.0,7.0,45,0.00,,,0.00,0.000000,,2013-08-18 08:32:00,
2013-08-18 02:42:00,52.0,31.0,-100.00,East,95,5.0,7.0,45,0.00,,,0.00,0.000000,,2013-08-18 08:42:00,
2013-08-18 02:52:00,52.0,31.0,-100.00,East,95,5.0,7.0,45,0.00,,,0.00,0.000000,,2013-08-18 08:52:00,
2013-08-18 03:21:00,51.0,33.0,-100.00,ENE,78,5.0,8.0,49,0.00,,,0.00,0.000000,,2013-08-18 09:21:00,
2013-08-18 03:33:00,51.0,33.0,-100.00,ENE,78,5.0,8.0,49,0.00,,,0.00,0.000000,,2013-08-18 09:33:00,
2013-08-18 03:43:00,51.0,33.0,-100.00,ENE,78,5.0,8.0,49,0.00,,,0.00,0.000000,,2013-08-18 09:43:00,
2013-08-18 03:53:00,51.0,33.0,-100.00,ENE,78,5.0,8.0,49,0.00,,,0.00,0.000000,,2013-08-18 09:53:00,
2013-08-18 04:23:00,49.0,33.0,-100.00,East,88,5.0,7.0,54,0.00,,,0.00,0.000000,,2013-08-18 10:23:00,
2013-08-18 04:32:00,49.0,33.0,-100.00,East,88,5.0,7.0,54,0.00,,,0.00,0.000000,,2013-08-18 10:32:00,
2013-08-18 04:42:00,49.0,33.0,-100.00,East,88,5.0,7.0,54,0.00,,,0.00,0.000000,,2013-08-18 10:42:00,
2013-08-18 04:52:00,49.0,33.0,-100.00,East,88,5.0,7.0,54,0.00,,,0.00,0.000000,,2013-08-18 10:52:00,
2013-08-18 05:22:00,49.0,34.0,-100.00,East,83,5.0,8.0,55,0.00,,,0.00,0.000000,,2013-08-18 11:22:00,
2013-08-18 05:32:00,49.0,34.0,-100.00,East,83,5.0,8.0,55,0.00,,,0.00,0.000000,,2013-08-18 11:32:00,
2013-08-18 05:42:00,49.0,34.0,-100.00,East,83,5.0,8.0,55,0.00,,,0.00,0.000000,,2013-08-18 11:42:00,
2013-08-18 05:52:00,49.0,34.0,-100.00,East,83,5.0,8.0,55,0.00,,,0.00,0.000000,,2013-08-18 11:52:00,
2013-08-18 06:21:00,49.0,35.0,-100.00,East,81,6.0,10.0,58,0.00,,,0.00,0.000000,,2013-08-18 12:21:00,
2013-08-18 06:31:00,49.0,35.0,-100.00,East,81,6.0,10.0,58,0.00,,,0.00,0.000000,,2013-08-18 12:31:00,
2013-08-18 06:42:00,49.0,35.0,-100.00,East,81,6.0,10.0,58,0.00,,,0.00,0.000000,,2013-08-18 12:42:00,
2013-08-18 06:52:00,49.0,35.0,-100.00,East,81,6.0,10.0,58,0.00,,,0.00,0.000000,,2013-08-18 12:52:00,
2013-08-18 07:21:00,49.0,35.0,-100.00,ENE,71,4.0,11.0,58,0.00,,,0.00,8.000000,,2013-08-18 13:21:00,
2013-08-18 07:32:00,49.0,35.0,-100.00,ENE,71,4.0,11.0,58,0.00,,,0.00,8.000000,,2013-08-18 13:32:00,
2013-08-18 07:42:00,49.0,35.0,-100.00,ENE,71,4.0,11.0,58,0.00,,,0.00,8.000000,,2013-08-18 13:42:00,
2013-08-18 07:52:00,49.0,35.0,-100.00,ENE,71,4.0,11.0,58,0.00,,,0.00,8.000000,,2013-08-18 13:52:00,
2013-08-18 08:21:00,55.0,38.0,-100.00,East,88,6.0,8.0,53,0.00,,,0.00,154.000000,,2013-08-18 14:21:00,
2013-08-18 08:32:00,55.0,38.0,-100.00,East,88,6.0,8.0,53,0.00,,,0.00,154.000000,,2013-08-18 14:32:00,
2013-08-18 08:42:00,55.0,38.0,-100.00,East,88,6.0,8.0,53,0.00,,,0.00,154.000000,,2013-08-18 14:42:00,
2013-08-18 08:53:00,55.0,38.0,-100.00,East,88,6.0,8.0,53,0.00,,,0.00,154.000000,,2013-08-18 14:53:00,
2013-08-18 09:43:00,60.0,41.0,-100.00,East,94,5.0,8.0,49,-99.99,,,0.00,314.000000,,2013-08-18 15:43:00,
2013-08-18 09:53:00,60.0,41.0,-100.00,East,94,5.0,8.0,49,-99.99,,,0.00,314.000000,,2013-08-18 15:53:00,
2013-08-18 10:23:00,65.0,40.0,-100.00,ESE,106,4.0,9.0,40,0.00,,,0.00,475.000000,,2013-08-18 16:23:00,
2013-08-18 10:33:00,65.0,40.0,-100.00,ESE,106,4.0,9.0,40,0.00,,,0.00,475.000000,,2013-08-18 16:33:00,
2013-08-18 10:42:00,65.0,40.0,-100.00,ESE,106,4.0,9.0,40,0.00,,,0.00,475.000000,,2013-08-18 16:42:00,
2013-08-18 10:52:00,65.0,40.0,-100.00,ESE,106,4.0,9.0,40,0.00,,,0.00,475.000000,,2013-08-18 16:52:00,
2013-08-18 12:21:00,73.0,36.0,-100.00,WSW,258,10.0,16.0,26,-99.99,,,0.00,802.000000,,2013-08-18 18:21:00,
2013-08-18 12:32:00,73.0,36.0,-100.00,WSW,258,10.0,16.0,26,-99.99,,,0.00,802.000000,,2013-08-18 18:32:00,
2013-08-18 12:42:00,73.0,36.0,-100.00,WSW,258,10.0,16.0,26,-99.99,,,0.00,802.000000,,2013-08-18 18:42:00,
2013-08-18 12:52:00,73.0,36.0,-100.00,WSW,258,10.0,16.0,26,-99.99,,,0.00,802.000000,,2013-08-18 18:52:00,
2013-08-18 13:22:00,75.0,34.0,-100.00,WSW,257,12.0,19.0,22,0.00,,,0.00,936.000000,,2013-08-18 19:22:00,
2013-08-18 13:32:00,75.0,34.0,-100.00,WSW,257,12.0,19.0,22,0.00,,,0.00,936.000000,,2013-08-18 19:32:00,
2013-08-18 13:42:00,75.0,34.0,-100.00,WSW,257,12.0,19.0,22,0.00,,,0.00,936.000000,,2013-08-18 19:42:00,
2013-08-18 13:52:00,75.0,34.0,-100.00,WSW,257,12.0,19.0,22,0.00,,,0.00,936.000000,,2013-08-18 19:52:00,
2013-08-18 14:22:00,77.0,34.0,-100.00,West,263,12.0,21.0,21,0.00,,,0.00,946.000000,,2013-08-18 20:22:00,
2013-08-18 14:32:00,77.0,34.0,-100.00,West,263,12.0,21.0,21,0.00,,,0.00,946.000000,,2013-08-18 20:32:00,
2013-08-18 14:42:00,77.0,34.0,-100.00,West,263,12.0,21.0,21,0.00,,,0.00,946.000000,,2013-08-18 20:42:00,
2013-08-18 16:23:00,60.0,45.0,-100.00,West,265,6.0,23.0,57,-99.99,,,0.00,171.000000,,2013-08-18 22:23:00,
2013-08-18 16:34:00,60.0,45.0,-100.00,West,265,6.0,23.0,57,-99.99,,,0.00,171.000000,,2013-08-18 22:34:00,
2013-08-18 16:42:00,60.0,45.0,-100.00,West,265,6.0,23.0,57,-99.99,,,0.00,171.000000,,2013-08-18 22:42:00,
2013-08-18 16:52:00,60.0,45.0,-100.00,West,265,6.0,23.0,57,-99.99,,,0.00,171.000000,,2013-08-18 22:52:00,
2013-08-18 17:22:00,58.0,43.0,-100.00,East,84,21.0,35.0,57,0.00,,,0.00,199.000000,,2013-08-18 23:22:00,
2013-08-18 17:33:00,58.0,43.0,-100.00,East,84,21.0,35.0,57,0.00,,,0.00,199.000000,,2013-08-18 23:33:00,
2013-08-18 17:42:00,58.0,43.0,-100.00,East,84,21.0,35.0,57,0.00,,,0.00,199.000000,,2013-08-18 23:42:00,
2013-08-18 17:52:00,58.0,43.0,-100.00,East,84,21.0,35.0,57,0.00,,,0.00,199.000000,,2013-08-18 23:52:00,
2013-08-18 18:21:00,57.0,43.0,-100.00,ENE,60,9.0,31.0,59,0.00,,,0.00,44.000000,,2013-08-19 00:21:00,
2013-08-18 18:32:00,57.0,43.0,-100.00,ENE,60,9.0,31.0,59,0.00,,,0.00,44.000000,,2013-08-19 00:32:00,
2013-08-18 18:42:00,57.0,43.0,-100.00,ENE,60,9.0,31.0,59,0.00,,,0.00,44.000000,,2013-08-19 00:42:00,
2013-08-18 18:52:00,57.0,43.0,-100.00,ENE,60,9.0,31.0,59,0.00,,,0.00,44.000000,,2013-08-19 00:52:00,
2013-08-18 19:22:00,55.0,47.0,-100.00,East,79,9.0,19.0,73,0.02,,,0.02,33.000000,,2013-08-19 01:22:00,
2013-08-18 19:32:00,55.0,47.0,-100.00,East,79,9.0,19.0,73,0.02,,,0.02,33.000000,,2013-08-19 01:32:00,
2013-08-18 19:42:00,55.0,47.0,-100.00,East,79,9.0,19.0,73,0.02,,,0.02,33.000000,,2013-08-19 01:42:00,
2013-08-18 19:52:00,55.0,47.0,-100.00,East,79,9.0,19.0,73,0.02,,,0.02,33.000000,,2013-08-19 01:52:00,
2013-08-18 20:22:00,55.0,43.0,-100.00,ENE,73,12.0,19.0,65,0.00,,,0.02,90.000000,,2013-08-19 02:22:00,
2013-08-18 20:32:00,55.0,43.0,-100.00,ENE,73,12.0,19.0,65,0.00,,,0.02,90.000000,,2013-08-19 02:32:00,
2013-08-18 20:42:00,55.0,43.0,-100.00,ENE,73,12.0,19.0,65,0.00,,,0.02,90.000000,,2013-08-19 02:42:00,
2013-08-18 20:52:00,55.0,43.0,-100.00,ENE,73,12.0,19.0,65,0.00,,,0.02,90.000000,,2013-08-19 02:52:00,
2013-08-18 21:21:00,53.0,44.0,-100.00,East,88,12.0,18.0,72,0.00,,,0.02,2.000000,,2013-08-19 03:21:00,
2013-08-18 21:33:00,53.0,44.0,-100.00,East,88,12.0,18.0,72,0.00,,,0.02,2.000000,,2013-08-19 03:33:00,
2013-08-18 21:42:00,53.0,44.0,-100.00,East,88,12.0,18.0,72,0.00,,,0.02,2.000000,,2013-08-19 03:42:00,
2013-08-18 21:53:00,53.0,44.0,-100.00,East,88,12.0,18.0,72,0.00,,,0.02,2.000000,,2013-08-19 03:53:00,
2013-08-18 22:23:00,51.0,44.0,-100.00,East,87,12.0,17.0,76,0.00,,,0.02,0.000000,,2013-08-19 04:23:00,
2013-08-18 22:33:00,51.0,44.0,-100.00,East,87,12.0,17.0,76,0.00,,,0.02,0.000000,,2013-08-19 04:33:00,
2013-08-18 22:42:00,51.0,44.0,-100.00,East,87,12.0,17.0,76,0.00,,,0.02,0.000000,,2013-08-19 04:42:00,
2013-08-18 22:53:00,51.0,44.0,-100.00,East,87,12.0,17.0,76,0.00,,,0.02,0.000000,,2013-08-19 04:53:00,
2013-08-18 23:22:00,50.0,43.0,-100.00,ENE,78,9.0,14.0,76,0.00,,,0.02,0.000000,,2013-08-19 05:22:00,
2013-08-18 23:33:00,50.0,43.0,-100.00,ENE,78,9.0,14.0,76,0.00,,,0.02,0.000000,,2013-08-19 05:33:00,
2013-08-18 23:42:00,50.0,43.0,-100.00,ENE,78,9.0,14.0,76,0.00,,,0.02,0.000000,,2013-08-19 05:42:00,
2013-08-18 23:52:00,50.0,43.0,-100.00,ENE,78,9.0,14.0,76,0.00,,,0.02,0.000000,,2013-08-19 05:52:00,